createdAt,value
2023-04-28T00:00:02.770Z,100662.56
2023-04-28T00:02:54.157Z,100659.96
2023-04-28T00:05:23.172Z,100660.91
2023-04-28T00:07:51.096Z,100660.36
2023-04-28T00:10:18.815Z,100658.65
2023-04-28T00:12:46.655Z,100660.96
2023-04-28T00:15:15.398Z,100655.82
2023-04-28T00:17:43.700Z,100656.14
2023-04-28T00:20:13.525Z,100656.02
2023-04-28T00:22:41.486Z,100653.03
2023-04-28T00:25:10.930Z,100657.35
2023-04-28T00:27:39.694Z,100652.88
2023-04-28T00:30:08.302Z,100648.77
2023-04-28T00:32:36.042Z,100649.17
2023-04-28T00:35:04.107Z,100647.80
2023-04-28T00:37:36.515Z,100652.73
2023-04-28T00:40:04.875Z,100651.29
2023-04-28T00:42:32.647Z,100647.92
2023-04-28T00:45:05.843Z,100646.89
2023-04-28T00:47:37.559Z,100650.40
2023-04-28T00:50:06.653Z,100647.77
2023-04-28T00:52:34.514Z,100644.81
2023-04-28T00:55:02.505Z,100643.20
2023-04-28T00:57:31.443Z,100639.30
2023-04-28T01:00:01.193Z,100635.72
2023-04-28T01:02:30.656Z,100638.69
2023-04-28T01:05:00.446Z,100633.83
2023-04-28T01:07:28.692Z,100628.35
2023-04-28T01:09:57.005Z,100624.33
2023-04-28T01:12:30.677Z,100620.65
2023-04-28T01:14:59.532Z,100616.83
2023-04-28T01:17:29.040Z,100614.65
2023-04-28T01:19:59.874Z,100612.77
2023-04-28T01:22:27.609Z,100616.98
2023-04-28T01:24:55.643Z,100610.60
2023-04-28T01:27:24.095Z,100612.20
2023-04-28T01:29:51.986Z,100609.77
2023-04-28T01:32:20.622Z,100606.65
2023-04-28T01:34:50.106Z,100603.32
2023-04-28T01:37:17.863Z,100605.10
2023-04-28T01:39:45.905Z,100607.23
2023-04-28T01:42:13.903Z,100606.83
2023-04-28T01:44:41.715Z,100608.55
2023-04-28T01:47:12.025Z,100606.20
2023-04-28T01:49:39.740Z,100605.14
2023-04-28T01:52:08.873Z,100606.55
2023-04-28T01:54:36.839Z,100605.88
2023-04-28T01:57:04.780Z,100605.65
2023-04-28T01:59:33.163Z,100605.48
2023-04-28T02:02:01.400Z,100607.07
2023-04-28T02:04:29.425Z,100601.98
2023-04-28T02:06:57.627Z,100601.32
2023-04-28T02:09:25.856Z,100597.71
2023-04-28T02:11:53.619Z,100595.15
2023-04-28T02:14:22.263Z,100594.30
2023-04-28T02:16:50.070Z,100592.44
2023-04-28T02:19:18.169Z,100590.65
2023-04-28T02:21:46.006Z,100593.83
2023-04-28T02:24:15.202Z,100591.97
2023-04-28T02:26:43.230Z,100590.24
2023-04-28T02:29:11.206Z,100583.84
2023-04-28T02:31:39.127Z,100585.55
2023-04-28T02:34:07.165Z,100585.29
2023-04-28T02:36:35.287Z,100584.23
2023-04-28T02:39:03.390Z,100581.61
2023-04-28T02:41:31.741Z,100581.63
2023-04-28T02:43:59.505Z,100578.63
2023-04-28T02:46:27.383Z,100575.27
2023-04-28T02:48:55.090Z,100587.89
2023-04-28T02:51:22.881Z,100579.88
2023-04-28T02:53:51.065Z,100579.08
2023-04-28T02:56:18.944Z,100575.70
2023-04-28T02:58:46.739Z,100576.70
2023-04-28T03:01:14.648Z,100573.25
2023-04-28T03:03:42.769Z,100572.75
2023-04-28T03:06:10.697Z,100567.88
2023-04-28T03:08:39.130Z,100568.27
2023-04-28T03:11:07.429Z,100561.56
2023-04-28T03:13:36.212Z,100557.95
2023-04-28T03:16:05.037Z,100558.98
2023-04-28T03:18:33.533Z,100562.04
2023-04-28T03:21:01.642Z,100558.84
2023-04-28T03:23:29.479Z,100557.05
2023-04-28T03:25:57.384Z,100560.38
2023-04-28T03:28:26.380Z,100563.20
2023-04-28T03:30:54.680Z,100559.80
2023-04-28T03:33:22.473Z,100563.85
2023-04-28T03:35:50.706Z,100562.19
2023-04-28T03:38:18.913Z,100566.19
2023-04-28T03:40:46.779Z,100565.83
2023-04-28T03:43:35.478Z,100568.27
2023-04-28T03:46:24.069Z,100566.80
2023-04-28T03:48:53.604Z,100570.04
2023-04-28T03:51:21.744Z,100569.59
2023-04-28T03:53:49.669Z,100564.53
2023-04-28T03:56:17.440Z,100565.05
2023-04-28T03:58:45.383Z,100565.92
2023-04-28T04:01:13.163Z,100566.13
2023-04-28T04:03:41.103Z,100562.64
2023-04-28T04:06:09.430Z,100563.81
2023-04-28T04:08:37.836Z,100560.80
2023-04-28T04:11:05.720Z,100560.50
2023-04-28T04:13:33.652Z,100560.77
2023-04-28T04:16:04.821Z,100561.98
2023-04-28T04:18:32.689Z,100561.27
2023-04-28T04:21:21.228Z,100559.58
2023-04-28T04:23:50.841Z,100555.34
2023-04-28T04:26:18.863Z,100557.41
2023-04-28T04:28:48.261Z,100554.14
2023-04-28T04:31:17.040Z,100554.37
2023-04-28T04:33:45.379Z,100553.95
2023-04-28T04:36:13.183Z,100550.63
2023-04-28T04:38:41.172Z,100548.79
2023-04-28T04:41:13.706Z,100541.75
2023-04-28T04:43:41.638Z,100539.84
2023-04-28T04:46:09.518Z,100535.68
2023-04-28T04:48:37.461Z,100535.65
2023-04-28T04:51:05.514Z,100531.77
2023-04-28T04:53:33.447Z,100528.47
2023-04-28T04:56:02.837Z,100527.71
2023-04-28T04:58:30.894Z,100528.59
2023-04-28T05:01:16.954Z,100528.67
2023-04-28T05:03:44.887Z,100528.31
2023-04-28T05:06:13.174Z,100528.42
2023-04-28T05:08:46.968Z,100527.81
2023-04-28T05:11:14.880Z,100525.39
2023-04-28T05:13:42.891Z,100522.63
2023-04-28T05:16:11.012Z,100522.14
2023-04-28T05:18:59.884Z,100521.83
2023-04-28T05:21:28.590Z,100520.86
2023-04-28T05:23:57.428Z,100525.01
2023-04-28T05:26:25.419Z,100522.19
2023-04-28T05:28:55.280Z,100523.67
2023-04-28T05:31:23.047Z,100524.27
2023-04-28T05:33:54.103Z,100519.99
2023-04-28T05:36:22.401Z,100517.37
2023-04-28T05:38:50.355Z,100523.02
2023-04-28T05:41:19.266Z,100517.52
2023-04-28T05:43:47.753Z,100520.20
2023-04-28T05:46:29.325Z,100520.77
2023-04-28T05:48:59.182Z,100514.53
2023-04-28T05:51:27.534Z,100515.61
2023-04-28T05:53:55.470Z,100513.23
2023-04-28T05:56:23.936Z,100515.52
2023-04-28T05:58:51.866Z,100512.93
2023-04-28T06:01:20.102Z,100512.69
2023-04-28T06:03:48.144Z,100514.05
2023-04-28T06:06:16.246Z,100516.02
2023-04-28T06:08:44.160Z,100512.05
2023-04-28T06:11:12.717Z,100510.23
2023-04-28T06:13:41.077Z,100503.91
2023-04-28T06:16:09.005Z,100502.27
2023-04-28T06:18:38.146Z,100504.44
2023-04-28T06:21:06.613Z,100503.96
2023-04-28T06:23:34.742Z,100502.70
2023-04-28T06:26:02.648Z,100503.48
2023-04-28T06:28:30.795Z,100504.37
2023-04-28T06:30:59.884Z,100501.54
2023-04-28T06:33:27.784Z,100500.20
2023-04-28T06:35:55.640Z,100502.25
2023-04-28T06:38:23.663Z,100495.07
2023-04-28T06:40:51.560Z,100495.55
2023-04-28T06:43:19.902Z,100494.41
2023-04-28T06:45:57.517Z,100494.09
2023-04-28T06:48:26.742Z,100492.92
2023-04-28T06:50:54.679Z,100492.48
2023-04-28T06:53:23.800Z,100476.95
2023-04-28T06:55:51.682Z,100477.80
2023-04-28T06:58:21.549Z,100476.30
2023-04-28T07:00:49.341Z,100479.98
2023-04-28T07:03:17.228Z,100474.38
2023-04-28T07:05:45.131Z,100472.25
2023-04-28T07:08:12.945Z,100466.77
2023-04-28T07:10:41.332Z,100461.55
2023-04-28T07:13:09.298Z,100462.29
2023-04-28T07:15:37.046Z,100460.85
2023-04-28T07:18:05.204Z,100457.63
2023-04-28T07:20:33.094Z,100458.14
2023-04-28T07:23:00.885Z,100456.68
2023-04-28T07:25:28.980Z,100453.92
2023-04-28T07:27:57.362Z,100450.00
2023-04-28T07:30:27.770Z,100450.41
2023-04-28T07:32:56.386Z,100448.89
2023-04-28T07:35:24.647Z,100448.61
2023-04-28T07:37:53.214Z,100447.79
2023-04-28T07:40:21.313Z,100442.49
2023-04-28T07:42:49.287Z,100442.25
2023-04-28T07:45:17.137Z,100441.90
2023-04-28T07:47:45.032Z,100434.09
2023-04-28T07:50:12.801Z,100432.62
2023-04-28T07:52:40.734Z,100431.66
2023-04-28T07:55:08.874Z,100429.14
2023-04-28T07:57:37.069Z,100430.79
2023-04-28T13:02:38.439Z,100100.06
2023-04-28T13:05:07.512Z,100093.54
2023-04-28T13:07:35.285Z,100096.10
2023-04-28T13:10:03.391Z,100091.46
2023-04-28T13:12:31.198Z,100095.72
2023-04-28T13:15:00.964Z,100093.60
2023-04-28T13:17:29.425Z,100093.69
2023-04-28T13:19:57.245Z,100089.33
2023-04-28T13:22:25.166Z,100085.91
2023-04-28T13:24:53.004Z,100084.46
2023-04-28T13:27:20.718Z,100080.18
2023-04-28T13:29:48.504Z,100081.34
2023-04-28T13:32:16.472Z,100081.91
2023-04-28T13:34:45.206Z,100088.30
2023-04-28T13:37:13.369Z,100086.22
2023-04-28T13:39:41.224Z,100075.43
2023-04-28T13:42:09.285Z,100079.80
2023-04-28T13:44:37.463Z,100074.63
2023-04-28T13:47:09.077Z,100072.08
2023-04-28T13:49:37.403Z,100070.35
2023-04-28T13:52:05.680Z,100069.92
2023-04-28T13:54:33.472Z,100060.36
2023-04-28T13:57:01.397Z,100059.61
2023-04-28T13:59:29.158Z,100058.86
2023-04-28T14:01:56.909Z,100052.81
2023-04-28T14:04:24.994Z,100052.46
2023-04-28T14:06:53.001Z,100051.73
2023-04-28T14:09:20.991Z,100045.52
2023-04-28T14:11:48.745Z,100040.77
2023-04-28T14:14:16.424Z,100044.42
2023-04-28T14:16:45.330Z,100036.05
2023-04-28T14:19:17.428Z,100031.64
2023-04-28T14:21:45.402Z,100029.83
2023-04-28T14:24:13.134Z,100028.42
2023-04-28T14:26:43.929Z,100027.21
2023-04-28T14:29:12.142Z,100022.73
2023-04-28T14:31:41.137Z,100023.59
2023-04-28T14:34:09.081Z,100026.56
2023-04-28T14:36:38.351Z,100024.44
2023-04-28T14:39:06.605Z,100019.45
2023-04-28T14:41:34.436Z,100019.88
2023-04-28T14:44:02.207Z,100013.83
2023-04-28T14:46:30.660Z,100018.55
2023-04-28T14:48:58.595Z,100012.55
2023-04-28T14:51:26.409Z,100012.05
2023-04-28T14:53:54.581Z,100013.09
2023-04-28T14:56:22.322Z,100007.09
2023-04-28T14:58:50.494Z,100002.71
2023-04-28T15:01:19.544Z,100001.14
2023-04-28T15:03:47.526Z,100002.45
2023-04-28T15:06:15.415Z,99999.16
2023-04-28T15:08:43.336Z,99995.63
2023-04-28T15:11:11.889Z,99993.84
2023-04-28T15:13:41.659Z,99991.41
2023-04-28T15:16:10.915Z,99990.30
2023-04-28T15:18:39.591Z,99987.98
2023-04-28T15:21:08.628Z,99983.64
2023-04-28T15:23:36.982Z,99980.86
2023-04-28T15:26:04.993Z,99976.61
2023-04-28T15:28:32.809Z,99972.64
2023-04-28T15:31:00.603Z,99970.43
2023-04-28T15:33:28.870Z,99967.54
2023-04-28T15:35:57.325Z,99966.45
2023-04-28T15:38:25.410Z,99966.52
2023-04-28T15:40:53.409Z,99958.23
2023-04-28T15:43:21.246Z,99952.94
2023-04-28T15:45:49.063Z,99955.84
2023-04-28T15:48:17.220Z,99954.43
2023-04-28T15:50:45.064Z,99954.36
2023-04-28T15:53:12.845Z,99947.91
2023-04-28T15:55:40.789Z,99952.88
2023-04-28T15:58:09.812Z,99946.84
2023-04-28T16:00:40.742Z,99944.84
2023-04-28T16:03:08.676Z,99942.36
2023-04-28T16:05:38.282Z,99940.59
2023-04-28T16:08:06.136Z,99936.69
2023-04-28T16:10:34.399Z,99936.27
2023-04-28T16:13:02.401Z,99931.14
2023-04-28T16:15:30.284Z,99931.41
2023-04-28T16:17:58.774Z,99934.34
2023-04-28T16:20:26.577Z,99930.09
2023-04-28T16:22:55.818Z,99928.41
2023-04-28T16:25:24.172Z,99926.62
2023-04-28T16:27:52.023Z,99925.13
2023-04-28T16:30:19.953Z,99931.14
2023-04-28T16:32:47.793Z,99927.03
2023-04-28T16:35:16.028Z,99924.06
2023-04-28T16:37:43.931Z,99921.93
2023-04-28T16:40:15.253Z,99922.81
2023-04-28T16:42:48.077Z,99918.15
2023-04-28T16:45:17.419Z,99919.35
2023-04-28T16:47:46.829Z,99913.36
2023-04-28T16:50:15.036Z,99909.69
2023-04-28T16:52:43.158Z,99910.45
2023-04-28T16:55:11.948Z,99910.17
2023-04-28T16:57:39.683Z,99907.91
2023-04-28T17:00:09.358Z,99905.11
2023-04-28T17:02:37.419Z,99905.73
2023-04-28T17:05:05.532Z,99899.66
2023-04-28T17:07:33.405Z,99896.31
2023-04-28T17:10:01.369Z,99900.71
2023-04-28T17:12:29.320Z,99902.01
2023-04-28T17:14:57.133Z,99896.23
2023-04-28T17:17:25.414Z,99894.81
2023-04-28T17:19:55.039Z,99902.33
2023-04-28T17:22:24.132Z,99901.15
2023-04-28T17:24:51.895Z,99896.89
2023-04-28T17:27:19.792Z,99897.95
2023-04-28T17:32:16.534Z,99896.92
2023-04-28T17:34:44.402Z,99899.70
2023-04-28T17:37:12.231Z,99897.38
2023-04-28T17:39:40.016Z,99896.09
2023-04-28T17:42:08.608Z,99897.21
2023-04-28T17:44:37.484Z,99894.48
2023-04-28T17:47:05.629Z,99897.90
2023-04-28T17:49:33.461Z,99903.05
2023-04-28T17:52:01.365Z,99898.67
2023-04-28T17:54:29.161Z,99895.38
2023-04-28T17:56:57.268Z,99895.81
2023-04-28T17:59:25.139Z,99896.78
2023-04-28T18:01:59.110Z,99897.92
2023-04-28T18:04:27.300Z,99897.20
2023-04-28T18:06:55.542Z,99893.11
2023-04-28T18:09:23.324Z,99896.83
2023-04-28T18:11:54.289Z,99900.39
2023-04-28T18:14:22.100Z,99899.68
2023-04-28T18:16:50.416Z,99898.23
2023-04-28T18:19:18.293Z,99897.89
2023-04-28T18:21:46.165Z,99895.34
2023-04-28T18:24:13.938Z,99900.74
2023-04-28T18:26:42.281Z,99902.37
2023-04-28T18:29:10.040Z,99895.65
2023-04-28T18:31:37.851Z,99900.61
2023-04-28T18:34:05.877Z,99901.88
2023-04-28T18:36:36.981Z,99906.92
2023-04-28T18:39:06.302Z,99905.23
2023-04-28T18:41:36.462Z,99906.81
2023-04-28T18:44:06.865Z,99902.52
2023-04-28T18:46:35.238Z,99905.77
2023-04-28T18:49:03.557Z,99904.27
2023-04-28T18:51:31.396Z,99909.43
2023-04-28T18:53:59.622Z,99906.90
2023-04-28T18:56:27.631Z,99911.84
2023-04-28T18:58:55.723Z,99909.80
2023-04-28T19:01:24.824Z,99911.08
2023-04-28T19:03:54.008Z,99908.23
2023-04-28T19:06:22.216Z,99909.42
2023-04-28T19:08:50.165Z,99912.61
2023-04-28T19:11:18.019Z,99916.20
2023-04-28T19:13:46.163Z,99917.22
2023-04-28T19:16:14.079Z,99917.06
2023-04-28T19:18:43.024Z,99917.27
2023-04-28T19:21:12.406Z,99912.55
2023-04-28T19:23:40.970Z,99910.64
2023-04-28T19:26:09.698Z,99905.36
2023-04-28T19:28:37.530Z,99906.64
2023-04-28T19:31:05.671Z,99911.33
2023-04-28T19:33:33.750Z,99913.95
2023-04-28T19:36:01.658Z,99911.02
2023-04-28T19:38:29.427Z,99914.83
2023-04-28T19:41:01.172Z,99912.86
2023-04-28T19:43:29.206Z,99911.20
2023-04-28T19:45:57.506Z,99911.23
2023-04-28T19:48:26.224Z,99915.20
2023-04-28T19:50:54.535Z,99917.23
2023-04-28T19:53:22.412Z,99919.34
2023-04-28T19:55:50.838Z,99922.40
2023-04-28T19:58:18.832Z,99918.73
2023-04-28T20:00:47.856Z,99919.77
2023-04-28T20:03:17.150Z,99919.13
2023-04-28T20:05:45.154Z,99917.96
2023-04-28T20:08:12.972Z,99915.53
2023-04-28T20:10:40.959Z,99917.77
2023-04-28T20:13:09.373Z,99919.23
2023-04-28T20:15:37.811Z,99916.58
2023-04-28T20:18:06.393Z,99913.58
2023-04-28T20:20:34.627Z,99917.58
2023-04-28T20:23:02.391Z,99914.74
2023-04-28T20:25:30.135Z,99915.13
2023-04-28T20:27:59.052Z,99916.37
2023-04-28T20:30:27.858Z,99915.73
2023-04-28T20:32:55.749Z,99915.59
2023-04-28T20:35:23.682Z,99913.55
2023-04-28T20:37:52.748Z,99912.67
2023-04-28T20:40:20.982Z,99909.22
2023-04-28T20:42:49.709Z,99909.13
2023-04-28T20:45:18.605Z,99905.05
2023-04-28T20:47:46.360Z,99904.45
2023-04-28T20:50:14.164Z,99899.30
2023-04-28T20:52:42.058Z,99900.61
2023-04-28T20:55:11.013Z,99900.49
2023-04-28T20:57:38.828Z,99893.85
2023-04-28T21:00:07.310Z,99895.60
2023-04-28T21:02:36.234Z,99889.45
2023-04-28T21:05:04.719Z,99892.45
2023-04-28T21:07:32.577Z,99893.09
2023-04-28T21:10:00.446Z,99889.45
2023-04-28T21:12:29.697Z,99885.25
2023-04-28T21:14:59.565Z,99889.81
2023-04-28T21:17:27.284Z,99889.64
2023-04-28T21:19:59.701Z,99890.11
2023-04-28T21:22:29.885Z,99886.85
2023-04-28T21:24:58.212Z,99890.55
2023-04-28T21:28:00.213Z,99889.79
2023-04-28T21:30:29.517Z,99888.41
2023-04-28T21:32:57.389Z,99887.27
2023-04-28T21:35:25.818Z,99886.61
2023-04-28T21:37:53.705Z,99876.52
2023-04-28T21:40:21.728Z,99879.79
2023-04-28T21:42:50.033Z,99877.66
2023-04-28T21:45:19.091Z,99876.16
2023-04-28T21:47:47.399Z,99874.85
2023-04-28T21:50:15.452Z,99878.67
2023-04-28T21:52:43.250Z,99875.01
2023-04-28T21:55:11.123Z,99874.80
2023-04-28T21:57:38.890Z,99873.34
2023-04-28T22:00:10.761Z,99869.61
2023-04-28T22:02:41.646Z,99864.91
2023-04-28T22:05:09.806Z,99860.72
2023-04-28T22:07:37.729Z,99863.77
2023-04-28T22:10:06.395Z,99862.31
2023-04-28T22:12:34.430Z,99861.31
2023-04-28T22:15:02.501Z,99860.74
2023-04-28T22:17:30.378Z,99864.55
2023-04-28T22:19:58.398Z,99864.45
2023-04-28T22:22:27.491Z,99858.73
2023-04-28T22:24:55.803Z,99857.80
2023-04-28T22:27:23.647Z,99852.56
2023-04-28T22:29:51.820Z,99853.16
2023-04-28T22:32:19.785Z,99852.70
2023-04-28T22:34:49.159Z,99851.89
2023-04-28T22:37:17.099Z,99849.05
2023-04-28T22:39:45.037Z,99848.23
2023-04-28T22:42:13.025Z,99847.26
2023-04-28T22:44:40.982Z,99841.63
2023-04-28T22:47:09.004Z,99840.42
2023-04-28T22:49:36.822Z,99834.51
2023-04-28T22:52:04.784Z,99830.72
2023-04-28T22:54:32.666Z,99836.55
2023-04-28T22:57:00.685Z,99838.69
2023-04-28T22:59:29.798Z,99840.43
2023-04-28T23:01:57.665Z,99842.01
2023-04-28T23:04:26.165Z,99838.98
2023-04-28T23:06:54.287Z,99836.48
2023-04-28T23:09:22.067Z,99831.73
2023-04-28T23:11:50.567Z,99832.31
2023-04-28T23:14:18.522Z,99833.29
2023-04-28T23:16:46.278Z,99834.38
2023-04-28T23:19:14.082Z,99831.54
2023-04-28T23:21:42.007Z,99833.15
2023-04-28T23:24:10.312Z,99829.77
2023-04-28T23:26:38.050Z,99825.39
2023-04-28T23:29:06.307Z,99827.47
2023-04-28T23:31:54.569Z,99821.34
2023-04-28T23:34:22.864Z,99817.98
2023-04-28T23:36:52.280Z,99814.41
2023-04-28T23:39:20.150Z,99811.64
2023-04-28T23:41:47.970Z,99807.37
2023-04-28T23:44:17.118Z,99806.02
2023-04-28T23:46:45.079Z,99805.06
2023-04-28T23:49:13.886Z,99799.77
2023-04-28T23:51:41.925Z,99799.20
2023-04-28T23:54:10.195Z,99793.08
2023-04-28T23:56:38.021Z,99793.79
2023-04-28T23:59:05.792Z,99795.11
